This is the latest recevied weather packets stored in our database for station/object K7KRJ-10. If no packets are shown the sender has not sent any weather packets the latest 10 day(s).
| Time | Temp. | Humidity | Pressure | Rain* | Wind** | Luminosity | Snow |
|---|---|---|---|---|---|---|---|
| 1777720108 | 21.11° C | 25% | 1010.2 hPa | 0 mm | - | 0 W/m² | - |
| 1777719206 | 21.67° C | 24% | 1010.2 hPa | 0 mm | - | 0 W/m² | - |
| 1777718304 | 22.22° C | 24% | 1009.9 hPa | 0 mm | - | 0 W/m² | - |
| 1777717400 | 21.67° C | 24% | 1009.7 hPa | 0 mm | - | 0 W/m² | - |
| 1777716500 | 22.22° C | 25% | 1010 hPa | 0 mm | - | 0 W/m² | - |
| 1777715600 | 22.78° C | 23% | 1010 hPa | 0 mm | - | 0 W/m² | - |
| 1777714698 | 22.78° C | 23% | 1009.8 hPa | 0 mm | - | 0 W/m² | - |
| 1777713797 | 22.78° C | 23% | 1009.7 hPa | 0 mm | - | 0 W/m² | - |
| 1777712893 | 23.33° C | 22% | 1009.7 hPa | 0 mm | - | 0 W/m² | - |
| 1777711988 | 24.44° C | 21% | 1009.6 hPa | 0 mm | - | 0 W/m² | - |
| 1777711083 | 24.44° C | 21% | 1009.6 hPa | 0 mm | - | 0 W/m² | - |
| 1777710180 | 25° C | 21% | 1009.6 hPa | 0 mm | - | 0 W/m² | - |
| 1777709277 | 25.56° C | 20% | 1009.5 hPa | 0 mm | - | 0 W/m² | - |
| 1777708376 | 25° C | 20% | 1009.3 hPa | 0 mm | - | 0 W/m² | - |
| 1777707472 | 23.89° C | 22% | 1009.2 hPa | 0 mm | - | 0 W/m² | - |
| 1777706570 | 23.89° C | 23% | 1009.4 hPa | 0 mm | - | 0 W/m² | - |
| 1777705669 | 23.33° C | 26% | 1009.4 hPa | 0 mm | - | 0 W/m² | - |
| 1777704768 | 23.89° C | 25% | 1009.2 hPa | 0 mm | - | 0 W/m² | - |
| 1777703867 | 24.44° C | 25% | 1008.9 hPa | 0 mm | - | 0 W/m² | - |
| 1777702965 | 24.44° C | 23% | 1008.8 hPa | 0 mm | - | 0 W/m² | - |
| 1777702061 | 23.89° C | 24% | 1008.8 hPa | 0 mm | - | 0 W/m² | - |
| 1777701159 | 24.44° C | 23% | 1008.7 hPa | 0 mm | - | 0 W/m² | - |
| 1777700258 | 25° C | 23% | 1008.3 hPa | 0 mm | - | 0 W/m² | - |
| 1777699357 | 25° C | 23% | 1008.2 hPa | 0 mm | - | 0 W/m² | - |
| 1777698454 | 25° C | 22% | 1008.3 hPa | 0 mm | - | 0 W/m² | - |
* Rain latest hour (hover to see other rain measurements)
** Current wind speed in m/s (hover to see current wind gust speed)